createdAt,value
2018-03-14T00:01:02.438Z,98957.76
2018-03-14T00:03:30.922Z,98950.42
2018-03-14T00:05:59.395Z,98956.72
2018-03-14T00:08:27.917Z,98950.88
2018-03-14T00:10:56.397Z,98955.77
2018-03-14T00:13:24.926Z,98949.96
2018-03-14T00:15:53.434Z,98950.39
2018-03-14T00:18:21.915Z,98953.12
2018-03-14T00:20:50.430Z,98950.00
2018-03-14T00:23:18.922Z,98953.97
2018-03-14T00:25:47.469Z,98963.87
2018-03-14T00:28:15.958Z,98947.75
2018-03-14T00:30:44.435Z,98959.55
2018-03-14T00:33:12.961Z,98948.28
2018-03-14T00:35:41.422Z,98957.70
2018-03-14T00:38:09.897Z,98953.77
2018-03-14T00:40:38.449Z,98943.72
2018-03-14T00:43:06.936Z,98953.53
2018-03-14T00:45:35.406Z,98942.73
2018-03-14T00:48:03.918Z,98947.36
2018-03-14T00:50:32.412Z,98946.02
2018-03-14T00:53:00.954Z,98954.16
2018-03-14T00:55:29.497Z,98944.18
2018-03-14T00:57:58.010Z,98945.80
2018-03-14T01:00:26.502Z,98948.73
2018-03-14T01:02:55.013Z,98944.98
2018-03-14T01:05:23.518Z,98945.09
2018-03-14T01:07:52.025Z,98943.87
2018-03-14T01:10:20.492Z,98941.20
2018-03-14T01:12:49.025Z,98939.64
2018-03-14T01:15:17.535Z,98939.88
2018-03-14T01:17:46.050Z,98926.17
2018-03-14T01:20:14.574Z,98915.95
2018-03-14T01:22:43.050Z,98931.89
2018-03-14T01:25:11.570Z,98917.03
2018-03-14T01:27:40.054Z,98925.43
2018-03-14T01:30:08.525Z,98926.16
2018-03-14T01:32:37.086Z,98934.26
2018-03-14T01:35:05.592Z,98935.03
2018-03-14T01:37:34.110Z,98932.25
2018-03-14T01:40:02.634Z,98935.05
2018-03-14T01:42:31.134Z,98933.27
2018-03-14T01:44:59.649Z,98930.61
2018-03-14T01:47:28.130Z,98924.86
2018-03-14T01:49:56.650Z,98920.59
2018-03-14T01:52:25.157Z,98922.55
2018-03-14T01:54:53.654Z,98914.96
2018-03-14T01:57:22.166Z,98921.28
2018-03-14T01:59:50.649Z,98920.69
2018-03-14T02:02:19.143Z,98923.53
2018-03-14T02:04:47.661Z,98927.86
2018-03-14T02:07:16.162Z,98917.13
2018-03-14T02:09:44.660Z,98918.95
2018-03-14T02:12:13.177Z,98920.16
2018-03-14T02:14:41.676Z,98920.56
2018-03-14T02:17:10.197Z,98914.42
2018-03-14T02:19:38.674Z,98921.28
2018-03-14T02:22:07.174Z,98919.36
2018-03-14T02:24:35.702Z,98917.14
2018-03-14T02:27:04.202Z,98914.38
2018-03-14T02:29:32.677Z,98910.61
2018-03-14T02:32:01.203Z,98927.06
2018-03-14T02:34:29.674Z,98925.06
2018-03-14T02:37:04.906Z,98919.33
2018-03-14T02:39:33.404Z,98937.67
2018-03-14T02:42:01.930Z,98923.98
2018-03-14T02:44:30.393Z,98911.28
2018-03-14T02:46:58.938Z,98920.86
2018-03-14T02:49:27.433Z,98922.42
2018-03-14T02:51:55.922Z,98924.09
2018-03-14T02:54:24.426Z,98922.51
2018-03-14T02:56:52.881Z,98924.57
2018-03-14T02:59:21.370Z,98934.95
2018-03-14T03:01:49.817Z,98935.27
2018-03-14T03:04:18.270Z,98933.92
2018-03-14T03:06:50.679Z,98940.56
2018-03-14T03:09:19.178Z,98941.02
2018-03-14T03:11:47.686Z,98942.05
2018-03-14T03:14:16.140Z,98940.69
2018-03-14T03:16:44.634Z,98939.47
2018-03-14T03:19:13.093Z,98945.73
2018-03-14T03:21:41.589Z,98937.23
2018-03-14T03:24:10.062Z,98939.39
2018-03-14T03:26:38.562Z,98948.14
2018-03-14T03:29:07.005Z,98953.04
2018-03-14T03:31:35.494Z,98948.06
2018-03-14T03:34:03.949Z,98953.94
2018-03-14T03:36:32.437Z,98952.23
2018-03-14T03:39:00.952Z,98951.66
2018-03-14T03:41:29.437Z,98951.96
2018-03-14T03:43:57.895Z,98963.40
2018-03-14T03:46:26.378Z,98958.27
2018-03-14T03:48:54.835Z,98961.44
2018-03-14T03:51:23.352Z,98964.98
2018-03-14T03:53:51.822Z,98964.63
2018-03-14T03:56:20.329Z,98949.86
2018-03-14T03:58:48.822Z,98963.51
2018-03-14T04:01:17.269Z,98966.87
2018-03-14T04:03:45.719Z,98963.70
2018-03-14T04:06:14.218Z,98958.11
2018-03-14T04:08:42.702Z,98975.19
2018-03-14T04:11:11.158Z,98967.58
2018-03-14T04:13:39.651Z,98975.26
2018-03-14T04:16:08.142Z,98983.31
2018-03-14T04:18:36.680Z,98990.41
2018-03-14T04:21:05.171Z,98989.55
2018-03-14T04:23:33.622Z,98991.06
2018-03-14T04:26:02.130Z,98986.98
2018-03-14T04:28:30.618Z,98995.59
2018-03-14T04:30:59.134Z,98989.36
2018-03-14T04:33:27.589Z,98992.95
2018-03-14T04:35:56.077Z,98990.28
2018-03-14T04:38:24.566Z,98991.03
2018-03-14T04:40:53.057Z,98997.67
2018-03-14T04:43:21.534Z,98987.60
2018-03-14T04:45:50.018Z,98989.61
2018-03-14T04:48:18.506Z,98989.97
2018-03-14T04:50:46.966Z,98991.06
2018-03-14T04:53:15.449Z,98994.70
2018-03-14T04:55:43.935Z,98991.27
2018-03-14T04:58:12.418Z,99000.05
2018-03-14T05:00:40.865Z,99009.84
2018-03-14T05:03:09.354Z,98994.28
2018-03-14T05:05:37.816Z,99006.59
2018-03-14T05:08:06.314Z,99010.67
2018-03-14T05:10:34.762Z,99009.72
2018-03-14T05:13:03.258Z,99011.12
2018-03-14T05:15:31.747Z,99012.16
2018-03-14T05:18:00.218Z,99000.34
2018-03-14T05:20:28.702Z,99016.27
2018-03-14T05:22:57.146Z,99024.69
2018-03-14T05:25:25.647Z,99027.00
2018-03-14T05:27:54.099Z,99029.15
2018-03-14T05:30:22.586Z,99025.94
2018-03-14T05:32:51.038Z,99025.30
2018-03-14T05:35:19.545Z,99030.33
2018-03-14T05:37:47.994Z,99033.74
2018-03-14T05:40:16.489Z,99036.22
2018-03-14T05:42:44.969Z,99029.77
2018-03-14T05:45:13.475Z,99036.59
2018-03-14T05:47:41.981Z,99036.92
2018-03-14T05:50:10.471Z,99044.97
2018-03-14T05:52:39.014Z,99041.61
2018-03-14T05:55:07.461Z,99048.84
2018-03-14T05:57:35.926Z,99044.76
2018-03-14T06:00:04.490Z,99043.49
2018-03-14T06:02:32.990Z,99041.34
2018-03-14T06:05:01.544Z,99052.64
2018-03-14T06:07:30.050Z,99058.80
2018-03-14T06:09:58.542Z,99043.53
2018-03-14T06:12:27.007Z,99052.40
2018-03-14T06:14:55.498Z,99054.45
2018-03-14T06:17:23.967Z,99059.62
2018-03-14T06:19:52.462Z,99059.20
2018-03-14T06:22:20.965Z,99067.79
2018-03-14T06:24:49.425Z,99066.42
2018-03-14T06:27:17.937Z,99071.59
2018-03-14T06:29:46.388Z,99068.45
2018-03-14T06:32:14.843Z,99083.31
2018-03-14T06:34:43.350Z,99087.25
2018-03-14T06:37:11.855Z,99079.91
2018-03-14T06:39:40.355Z,99058.52
2018-03-14T06:42:08.877Z,99080.29
2018-03-14T06:44:37.499Z,99080.54
2018-03-14T06:47:05.988Z,99079.08
2018-03-14T06:49:34.492Z,99087.66
2018-03-14T06:52:02.977Z,99085.47
2018-03-14T06:54:31.470Z,99088.13
2018-03-14T06:56:59.941Z,99083.66
2018-03-14T06:59:40.001Z,99092.72
2018-03-14T07:02:20.066Z,99093.99
2018-03-14T07:05:00.863Z,99104.61
2018-03-14T07:07:29.326Z,99093.29
2018-03-14T07:09:57.847Z,99105.78
2018-03-14T07:12:26.358Z,99094.22
2018-03-14T07:14:54.838Z,99096.16
2018-03-14T07:17:23.412Z,99088.35
2018-03-14T07:19:51.877Z,99092.30
2018-03-14T07:22:20.417Z,99094.66
2018-03-14T07:24:48.878Z,99097.55
2018-03-14T07:27:17.430Z,99096.02
2018-03-14T07:29:45.901Z,99091.74
2018-03-14T07:32:14.415Z,99098.01
2018-03-14T07:34:42.901Z,99103.41
2018-03-14T07:37:11.394Z,99079.09
2018-03-14T07:39:39.894Z,99103.05
2018-03-14T07:42:08.394Z,99076.07
2018-03-14T07:44:36.896Z,99107.09
2018-03-14T07:47:05.378Z,99089.76
2018-03-14T07:49:33.887Z,99095.00
2018-03-14T07:52:02.382Z,99074.73
2018-03-14T07:54:30.791Z,99091.67
2018-03-14T07:56:59.225Z,99092.85
2018-03-14T07:59:27.627Z,99085.56
2018-03-14T08:01:56.064Z,99101.64
2018-03-14T08:04:24.492Z,99095.22
2018-03-14T08:06:52.884Z,99097.12
2018-03-14T08:09:21.312Z,99093.85
2018-03-14T08:11:49.763Z,99082.23
2018-03-14T08:14:18.192Z,99096.36
2018-03-14T08:16:46.625Z,99099.84
2018-03-14T08:19:15.054Z,99088.42
2018-03-14T08:21:43.582Z,99102.97
2018-03-14T08:24:11.977Z,99088.91
2018-03-14T08:26:40.413Z,99087.77
2018-03-14T08:29:08.836Z,99094.65
2018-03-14T08:31:37.245Z,99096.22
2018-03-14T08:34:06.022Z,99086.09
2018-03-14T08:36:34.469Z,99088.38
2018-03-14T08:39:03.029Z,99094.05
2018-03-14T08:41:31.575Z,99086.71
2018-03-14T08:44:01.013Z,99095.98
2018-03-14T08:46:29.506Z,99085.64
2018-03-14T08:48:58.026Z,99085.84
2018-03-14T08:51:26.486Z,99086.27
2018-03-14T08:53:54.974Z,99077.27
2018-03-14T08:56:23.486Z,99063.17
2018-03-14T08:58:51.985Z,99071.83
2018-03-14T09:01:20.447Z,99079.25
2018-03-14T09:03:48.983Z,99052.23
2018-03-14T09:06:17.449Z,99073.14
2018-03-14T09:08:46.075Z,99072.41
2018-03-14T09:11:14.698Z,99069.40
2018-03-14T09:13:43.282Z,99074.08
2018-03-14T09:16:11.814Z,99068.22
2018-03-14T09:18:41.299Z,99044.95
2018-03-14T09:21:11.151Z,99055.27
2018-03-14T09:23:39.686Z,99050.97
2018-03-14T09:26:08.238Z,99053.74
2018-03-14T09:28:36.780Z,99055.62
2018-03-14T09:31:05.443Z,99062.37
2018-03-14T09:33:33.911Z,99043.52
2018-03-14T09:36:02.403Z,99054.30
2018-03-14T09:38:30.871Z,99051.35
2018-03-14T09:40:59.377Z,99050.89
2018-03-14T09:43:27.842Z,99036.03
2018-03-14T09:45:56.371Z,99041.06
2018-03-14T09:48:24.829Z,99031.48
2018-03-14T09:50:53.303Z,99034.20
2018-03-14T09:53:21.815Z,99021.94
2018-03-14T09:55:50.311Z,98996.36
2018-03-14T09:58:18.766Z,99033.31
2018-03-14T10:00:47.311Z,99011.04
2018-03-14T10:03:15.778Z,99025.87
2018-03-14T10:05:44.293Z,98999.05
2018-03-14T10:08:12.763Z,99013.33
2018-03-14T10:10:41.258Z,99023.05
2018-03-14T10:13:09.710Z,99020.02
2018-03-14T10:15:38.210Z,99012.84
2018-03-14T10:18:06.770Z,99013.95
2018-03-14T10:20:35.226Z,99013.43
2018-03-14T10:23:03.744Z,99018.23
2018-03-14T10:25:32.316Z,99014.23
2018-03-14T10:28:00.782Z,99000.06
2018-03-14T10:30:29.244Z,99003.91
2018-03-14T10:32:57.774Z,98995.16
2018-03-14T10:35:26.279Z,98987.26
2018-03-14T10:37:54.769Z,99002.81
2018-03-14T10:40:23.240Z,98997.77
2018-03-14T10:42:51.756Z,98993.79
2018-03-14T10:45:20.214Z,99008.44
2018-03-14T10:47:48.702Z,98987.53
2018-03-14T10:50:17.172Z,99001.66
2018-03-14T10:52:45.682Z,98990.92
2018-03-14T10:55:14.154Z,98984.55
2018-03-14T10:57:42.625Z,98987.81
2018-03-14T11:00:16.762Z,98971.59
2018-03-14T11:02:50.693Z,98969.48
2018-03-14T11:05:19.216Z,98968.57
2018-03-14T11:07:47.739Z,98971.25
2018-03-14T11:10:16.262Z,98948.94
2018-03-14T11:12:44.757Z,98967.72
2018-03-14T11:15:13.223Z,98961.72
2018-03-14T11:17:41.718Z,98958.86
2018-03-14T11:20:10.214Z,98961.02
2018-03-14T11:22:38.667Z,98957.09
2018-03-14T11:25:07.126Z,98949.50
2018-03-14T11:27:35.689Z,98959.89
2018-03-14T11:30:04.302Z,98942.88
2018-03-14T11:32:32.802Z,98941.67
2018-03-14T11:35:01.262Z,98942.44
2018-03-14T11:37:29.793Z,98920.41
2018-03-14T11:59:05.495Z,98912.08
2018-03-14T12:01:34.014Z,98918.41
2018-03-14T12:04:02.543Z,98893.19
2018-03-14T12:06:31.131Z,98931.71
2018-03-14T12:08:59.642Z,98911.48
2018-03-14T12:11:28.097Z,98928.27
2018-03-14T12:13:56.571Z,98928.81
2018-03-14T12:16:25.095Z,98926.80
2018-03-14T12:18:53.752Z,98915.89
2018-03-14T12:21:22.251Z,98913.91
2018-03-14T12:23:50.718Z,98925.31
2018-03-14T12:26:19.348Z,98923.90
2018-03-14T12:28:47.813Z,98926.86
2018-03-14T12:31:16.314Z,98914.95
2018-03-14T12:33:44.862Z,98922.23
2018-03-14T12:36:13.366Z,98907.58
2018-03-14T12:38:41.822Z,98919.34
2018-03-14T12:41:10.394Z,98914.38
2018-03-14T12:43:38.853Z,98920.73
2018-03-14T12:46:07.321Z,98912.31
2018-03-14T12:48:35.857Z,98881.07
2018-03-14T12:51:04.383Z,98909.78
2018-03-14T12:53:32.881Z,98903.98
2018-03-14T12:56:01.370Z,98918.95
2018-03-14T12:58:29.917Z,98894.73
2018-03-14T13:00:58.438Z,98922.45
2018-03-14T13:03:26.973Z,98929.23
2018-03-14T13:05:55.486Z,98906.17
2018-03-14T13:08:23.942Z,98905.83
2018-03-14T13:10:52.454Z,98936.47
2018-03-14T13:13:20.909Z,98929.83
2018-03-14T13:15:49.401Z,98946.88
2018-03-14T13:18:17.874Z,98946.45
2018-03-14T13:20:46.362Z,98949.28
2018-03-14T13:23:14.825Z,98948.48
2018-03-14T13:25:43.345Z,98952.61
2018-03-14T13:28:11.869Z,98949.33
2018-03-14T13:30:40.347Z,98945.88
2018-03-14T13:33:08.841Z,98944.80
2018-03-14T13:35:37.306Z,98942.39
2018-03-14T13:38:06.619Z,98940.42
2018-03-14T13:40:35.129Z,98938.99
2018-03-14T13:43:03.626Z,98936.53
2018-03-14T13:45:32.142Z,98930.00
2018-03-14T13:48:00.646Z,98928.56
2018-03-14T13:50:29.158Z,98926.16
2018-03-14T13:52:57.694Z,98925.94
2018-03-14T13:55:26.201Z,98915.75
2018-03-14T13:57:54.746Z,98914.69
2018-03-14T14:00:23.249Z,98920.89
2018-03-14T14:02:52.657Z,98926.08
2018-03-14T14:05:21.164Z,98917.74
2018-03-14T14:07:49.699Z,98911.84
2018-03-14T14:10:18.154Z,98915.46
2018-03-14T14:12:46.668Z,98906.48
2018-03-14T14:15:15.172Z,98921.58
2018-03-14T14:17:43.670Z,98921.88
2018-03-14T14:20:12.203Z,98923.83
2018-03-14T14:22:40.671Z,98916.98
2018-03-14T14:25:09.177Z,98911.17
2018-03-14T14:27:37.665Z,98908.27
2018-03-14T14:30:06.148Z,98916.47
2018-03-14T14:32:34.606Z,98916.15
2018-03-14T14:35:03.157Z,98918.14
2018-03-14T14:37:31.664Z,98900.34
2018-03-14T14:40:00.178Z,98918.09
2018-03-14T14:42:28.979Z,98906.38
2018-03-14T14:44:57.553Z,98922.38
2018-03-14T14:47:26.022Z,98918.06
2018-03-14T14:49:54.540Z,98918.96
2018-03-14T14:52:23.034Z,98910.03
2018-03-14T14:54:51.510Z,98911.63
2018-03-14T14:57:20.014Z,98915.20
2018-03-14T14:59:48.499Z,98920.61
2018-03-14T15:02:16.982Z,98923.30
2018-03-14T15:04:45.437Z,98897.44
2018-03-14T15:07:13.965Z,98909.40
2018-03-14T15:09:42.474Z,98918.24
2018-03-14T15:12:11.010Z,98901.93
2018-03-14T15:14:39.466Z,98922.08
2018-03-14T15:17:07.926Z,98906.44
2018-03-14T15:19:36.430Z,98919.36
2018-03-14T15:22:04.893Z,98915.97
2018-03-14T15:24:33.379Z,98927.25
2018-03-14T15:27:01.871Z,98920.14
2018-03-14T15:29:30.330Z,98911.77
2018-03-14T15:31:58.838Z,98924.34
2018-03-14T15:34:27.396Z,98925.23
2018-03-14T15:36:55.957Z,98927.25
2018-03-14T15:39:24.422Z,98929.20
2018-03-14T15:41:52.927Z,98931.55
2018-03-14T15:44:21.432Z,98923.49
2018-03-14T15:46:49.894Z,98930.86
2018-03-14T15:49:18.351Z,98922.64
2018-03-14T15:51:46.844Z,98938.45
2018-03-14T15:54:15.299Z,98927.73
2018-03-14T15:56:43.814Z,98941.14
2018-03-14T15:59:12.279Z,98943.13
2018-03-14T16:01:40.729Z,98939.59
2018-03-14T16:04:09.214Z,98945.17
2018-03-14T16:06:37.671Z,98953.73
2018-03-14T16:09:06.230Z,98946.17
2018-03-14T16:11:34.692Z,98952.07
2018-03-14T16:14:03.213Z,98951.68
2018-03-14T16:16:31.678Z,98954.44
2018-03-14T16:19:00.133Z,98960.06
2018-03-14T16:21:28.643Z,98959.46
2018-03-14T16:23:57.129Z,98960.58
2018-03-14T16:26:25.571Z,98968.09
2018-03-14T16:28:54.067Z,98967.06
2018-03-14T16:31:22.572Z,98976.06
2018-03-14T16:33:51.018Z,98974.45
2018-03-14T16:36:19.481Z,98965.09
2018-03-14T16:38:47.972Z,98977.45
2018-03-14T16:41:16.434Z,98972.98
2018-03-14T16:43:44.926Z,98981.14
2018-03-14T16:46:13.378Z,98964.63
2018-03-14T16:48:41.857Z,98977.80
2018-03-14T16:51:10.364Z,98981.64
2018-03-14T16:53:38.813Z,98982.08
2018-03-14T16:56:07.263Z,98977.57
2018-03-14T16:58:35.746Z,98984.74
2018-03-14T17:01:04.238Z,98986.55
2018-03-14T17:03:32.714Z,98986.45
2018-03-14T17:06:01.196Z,98986.63
2018-03-14T17:08:29.703Z,98990.38
2018-03-14T17:10:58.189Z,98990.25
2018-03-14T17:13:26.708Z,98984.72
2018-03-14T17:15:55.164Z,99004.81
2018-03-14T17:18:23.659Z,98999.94
2018-03-14T17:20:52.128Z,99005.44
2018-03-14T17:23:20.610Z,99002.75
2018-03-14T17:25:49.105Z,98998.42
2018-03-14T17:28:17.590Z,99005.73
2018-03-14T17:30:46.077Z,99004.53
2018-03-14T17:33:14.571Z,99004.30
2018-03-14T17:35:43.027Z,98993.05
2018-03-14T17:38:11.558Z,99013.95
2018-03-14T17:40:40.034Z,99007.82
2018-03-14T17:43:08.550Z,99017.16
2018-03-14T17:45:37.034Z,99022.19
2018-03-14T17:48:05.510Z,99020.86
2018-03-14T17:50:34.009Z,99017.86
2018-03-14T17:53:02.504Z,99019.61
2018-03-14T17:55:31.001Z,99017.73
2018-03-14T17:57:59.468Z,99027.28
2018-03-14T18:00:27.980Z,99028.92
2018-03-14T18:02:56.480Z,99030.59
2018-03-14T18:05:24.970Z,99020.11
2018-03-14T18:07:53.482Z,99033.86
2018-03-14T18:10:21.930Z,99041.34
2018-03-14T18:12:50.423Z,99039.16
2018-03-14T18:15:18.932Z,99041.48
2018-03-14T18:17:47.403Z,99037.27
2018-03-14T18:20:15.854Z,99034.27
2018-03-14T18:22:44.370Z,99045.55
2018-03-14T18:25:12.826Z,99050.91
2018-03-14T18:27:41.318Z,99055.23
2018-03-14T18:30:09.932Z,99052.24
2018-03-14T18:32:38.432Z,99055.24
2018-03-14T18:35:06.922Z,99059.88
2018-03-14T18:37:35.414Z,99058.91
2018-03-14T18:40:03.906Z,99055.64
2018-03-14T18:42:32.403Z,99055.37
2018-03-14T18:45:00.892Z,99059.22
2018-03-14T18:47:29.358Z,99059.61
2018-03-14T18:49:57.849Z,99062.47
2018-03-14T18:52:26.298Z,99066.55
2018-03-14T18:54:54.781Z,99050.75
2018-03-14T18:57:23.280Z,99063.98
2018-03-14T18:59:51.802Z,99061.94
2018-03-14T19:02:20.258Z,99067.23
2018-03-14T19:04:48.761Z,99042.05
2018-03-14T19:07:17.225Z,99059.48
2018-03-14T19:09:45.772Z,99064.25
2018-03-14T19:12:14.237Z,99066.42
2018-03-14T19:14:42.690Z,99069.81
2018-03-14T19:17:11.192Z,99072.11
2018-03-14T19:19:39.745Z,99066.97
2018-03-14T19:22:08.195Z,99069.95
2018-03-14T19:24:36.660Z,99079.20
2018-03-14T19:27:05.150Z,99079.47
2018-03-14T19:29:33.607Z,99080.98
2018-03-14T19:32:02.106Z,99087.23
2018-03-14T19:34:30.606Z,99082.15
2018-03-14T19:36:59.095Z,99079.55
2018-03-14T19:39:27.541Z,99090.60
2018-03-14T19:41:56.077Z,99086.23
2018-03-14T19:44:24.586Z,99087.16
2018-03-14T19:46:53.066Z,99087.27
2018-03-14T19:49:21.518Z,99090.97
2018-03-14T19:51:50.002Z,99084.14
2018-03-14T19:54:18.445Z,99095.16
2018-03-14T19:56:46.968Z,99090.42
2018-03-14T19:59:15.432Z,99093.95
2018-03-14T20:01:43.960Z,99095.61
2018-03-14T20:04:12.458Z,99094.25
2018-03-14T20:06:40.928Z,99099.28
2018-03-14T20:09:09.495Z,99095.61
2018-03-14T20:11:37.930Z,99096.70
2018-03-14T20:14:06.436Z,99088.80
2018-03-14T20:16:34.889Z,99091.55
2018-03-14T20:19:03.378Z,99093.73
2018-03-14T20:21:31.878Z,99095.86
2018-03-14T20:24:00.326Z,99099.54
2018-03-14T20:26:28.821Z,99098.19
2018-03-14T20:28:57.290Z,99092.56
2018-03-14T20:31:25.759Z,99098.95
2018-03-14T20:33:54.215Z,99082.75
2018-03-14T20:36:22.703Z,99097.45
2018-03-14T20:38:51.193Z,99094.21
2018-03-14T20:41:19.700Z,99097.19
2018-03-14T20:43:48.190Z,99083.47
2018-03-14T20:46:16.647Z,99099.61
2018-03-14T20:48:45.137Z,99092.55
2018-03-14T20:51:13.586Z,99098.66
2018-03-14T20:53:42.048Z,99086.42
2018-03-14T20:56:10.558Z,99088.03
2018-03-14T20:58:39.014Z,99085.38
2018-03-14T21:01:07.510Z,99093.69
2018-03-14T21:03:36.002Z,99092.44
2018-03-14T21:06:04.517Z,99089.66
2018-03-14T21:08:32.999Z,99094.39
2018-03-14T21:11:01.457Z,99093.44
2018-03-14T21:13:29.958Z,99099.97
2018-03-14T21:15:58.469Z,99092.73
2018-03-14T21:18:26.919Z,99094.89
2018-03-14T21:20:55.370Z,99104.14
2018-03-14T21:23:23.918Z,99093.53
2018-03-14T21:25:52.416Z,99105.89
2018-03-14T21:28:20.908Z,99107.86
2018-03-14T21:30:49.358Z,99108.97
2018-03-14T21:33:17.852Z,99114.09
2018-03-14T21:35:46.298Z,99111.53
2018-03-14T21:38:15.180Z,99106.50
2018-03-14T21:40:43.682Z,99110.02
2018-03-14T21:43:12.208Z,99113.50
2018-03-14T21:45:40.693Z,99107.70
2018-03-14T21:48:09.186Z,99111.92
2018-03-14T21:50:37.635Z,99104.17
2018-03-14T21:53:06.154Z,99111.73
2018-03-14T21:55:40.655Z,99100.27
2018-03-14T21:58:09.028Z,99114.00
2018-03-14T22:00:37.511Z,99117.81
2018-03-14T22:03:05.966Z,99115.73
2018-03-14T22:05:34.426Z,99109.91
2018-03-14T22:08:02.921Z,99108.41
2018-03-14T22:10:31.414Z,99113.02
2018-03-14T22:12:59.867Z,99119.90
2018-03-14T22:15:28.402Z,99118.97
2018-03-14T22:17:56.911Z,99119.83
2018-03-14T22:20:25.410Z,99116.56
2018-03-14T22:22:53.901Z,99117.58
2018-03-14T22:25:22.383Z,99116.86
2018-03-14T22:27:50.928Z,99118.64
2018-03-14T22:30:19.400Z,99121.26
2018-03-14T22:32:47.949Z,99119.20
2018-03-14T22:35:16.425Z,99110.40
2018-03-14T22:37:44.909Z,99115.42
2018-03-14T22:40:13.362Z,99110.23
2018-03-14T22:42:41.871Z,99108.63
2018-03-14T22:45:10.374Z,99117.49
2018-03-14T22:47:38.822Z,99117.58
2018-03-14T22:50:07.334Z,99111.50
2018-03-14T22:52:35.791Z,99112.70
2018-03-14T22:55:04.339Z,99125.23
2018-03-14T22:57:32.826Z,99121.92
2018-03-14T23:00:01.274Z,99124.13
2018-03-14T23:02:29.810Z,99122.05
2018-03-14T23:04:58.258Z,99123.91
2018-03-14T23:07:26.796Z,99124.72
2018-03-14T23:09:55.250Z,99125.84
2018-03-14T23:12:23.733Z,99117.69
2018-03-14T23:14:52.184Z,99120.14
2018-03-14T23:17:20.670Z,99115.19
2018-03-14T23:19:49.121Z,99123.59
2018-03-14T23:22:17.610Z,99122.64
2018-03-14T23:24:46.067Z,99126.79
2018-03-14T23:27:14.523Z,99119.65
2018-03-14T23:29:43.018Z,99124.85
2018-03-14T23:32:11.466Z,99125.19
2018-03-14T23:34:39.955Z,99117.41
2018-03-14T23:37:08.438Z,99121.10
2018-03-14T23:39:36.926Z,99121.58
2018-03-14T23:42:05.419Z,99118.61
2018-03-14T23:44:33.869Z,99111.66
2018-03-14T23:47:02.353Z,99117.87
2018-03-14T23:49:30.878Z,99122.76
2018-03-14T23:51:59.322Z,99121.30
2018-03-14T23:54:27.802Z,99123.34
2018-03-14T23:56:56.295Z,99123.15
2018-03-14T23:59:24.813Z,99127.11
